Time;durP1;ratioP1;P1;durP2;ratioP2;P2;SDS_P1;SDS_P2;PMS_P1;PMS_P2;Temp;Humidity;BMP_temperature;BMP_pressure;BME280_temperature;BME280_humidity;BME280_pressure;Samples;Min_cycle;Max_cycle;Signal;HPM_P1;HPM_P2
2023/08/05 00:00:36;;;;;;;;;;;;;;;-140.72;100.00;52727.72;5077513;28;20281;-69
2023/08/05 00:03:01;;;;;;;;;;;;;;;-140.72;100.00;52731.75;5092444;28;19916;-69
2023/08/05 00:05:27;;;;;;;;;;;;;;;-140.72;100.00;52729.75;5082060;28;19916;-69
2023/08/05 00:07:52;;;;;;;;;;;;;;;-140.72;100.00;52727.72;5081065;28;19923;-69
2023/08/05 00:10:17;;;;;;;;;;;;;;;-140.72;100.00;52754.09;5094197;28;20411;-69
2023/08/05 00:12:43;;;;;;;;;;;;;;;-140.72;100.00;52670.88;5093464;28;20362;-69
2023/08/05 00:15:08;;;;;;;;;;;;;;;-140.72;100.00;52699.31;5094220;28;19924;-69
2023/08/05 00:17:33;;;;;;;;;;;;;;;-140.72;100.00;52723.66;5093136;28;19916;-69
2023/08/05 00:19:58;;;;;;;;;;;;;;;-140.72;100.00;52733.78;5093407;28;19996;-69
2023/08/05 00:22:24;;;;;;;;;;;;;;;-140.72;100.00;52666.84;5093707;28;19920;-69
2023/08/05 00:24:49;;;;;;;;;;;;;;;-140.72;100.00;52739.88;5093757;28;20374;-69
2023/08/05 00:27:14;;;;;;;;;;;;;;;-140.72;100.00;52697.28;5093341;28;19923;-69
2023/08/05 00:29:39;;;;;;;;;;;;;;;-140.72;100.00;52721.63;5093419;28;19920;-69
2023/08/05 00:32:05;;;;;;;;;;;;;;;-140.72;100.00;52711.47;5092965;28;19927;-69
2023/08/05 00:34:30;;;;;;;;;;;;;;;-140.72;100.00;52719.59;5093642;28;20011;-69
2023/08/05 00:36:55;;;;;;;;;;;;;;;-140.72;100.00;52711.47;5081886;28;19916;-69
2023/08/05 00:39:21;;;;;;;;;;;;;;;-140.72;100.00;52703.34;5088805;28;19923;-69
2023/08/05 00:41:46;;;;;;;;;;;;;;;-140.72;100.00;52723.66;5092909;28;20366;-69
2023/08/05 00:44:11;;;;;;;;;;;;;;;-140.72;100.00;52717.56;5093192;28;19916;-69
2023/08/05 00:46:36;;;;;;;;;;;;;;;-140.72;100.00;52709.44;5085593;28;19920;-69
2023/08/05 00:49:02;;;;;;;;;;;;;;;-140.72;100.00;52695.25;5092354;28;19916;-69
2023/08/05 00:51:27;;;;;;;;;;;;;;;-140.72;100.00;52737.84;5093409;28;19961;-69
2023/08/05 00:53:52;;;;;;;;;;;;;;;-140.72;100.00;52695.25;5093976;28;19923;-69
2023/08/05 00:56:17;;;;;;;;;;;;;;;-140.72;100.00;52699.31;5094970;28;19916;-69
2023/08/05 00:58:43;;;;;;;;;;;;;;;-140.72;100.00;52691.19;5092134;28;19927;-69
2023/08/05 01:01:09;;;;;;;;;;;;;;;-140.72;100.00;52674.94;5093479;28;20281;-69
2023/08/05 01:03:34;;;;;;;;;;;;;;;-140.72;100.00;52741.91;5087149;28;20022;-69
2023/08/05 01:06:00;;;;;;;;;;;;;;;-140.72;100.00;52717.56;5086196;28;19916;-69
2023/08/05 01:08:25;;;;;;;;;;;;;;;-140.72;100.00;52731.75;5092403;28;19952;-69
2023/08/05 01:10:51;;;;;;;;;;;;;;;-140.72;100.00;52695.25;5093190;28;20003;-69
2023/08/05 01:13:16;;;;;;;;;;;;;;;-140.72;100.00;52660.75;5093309;28;19969;-69
2023/08/05 01:15:42;;;;;;;;;;;;;;;-140.72;100.00;52685.09;5093277;28;19916;-69
2023/08/05 01:18:09;;;;;;;;;;;;;;;-140.72;100.00;52715.53;5092022;28;19920;-69
2023/08/05 01:20:37;;;;;;;;;;;;;;;-140.72;100.00;52681.03;5092673;28;19916;-69
2023/08/05 01:23:07;;;;;;;;;;;;;;;-140.72;100.00;52719.59;5093812;28;19962;-69
2023/08/05 01:25:33;;;;;;;;;;;;;;;-140.72;100.00;52679.00;5088733;28;19920;-69
2023/08/05 01:28:00;;;;;;;;;;;;;;;-140.72;100.00;52707.41;5085949;28;20761;-69
2023/08/05 01:30:25;;;;;;;;;;;;;;;-140.72;100.00;52699.31;5089520;28;19916;-69
2023/08/05 01:32:54;;;;;;;;;;;;;;;-140.72;100.00;52699.31;5093046;28;20070;-69
2023/08/05 01:35:22;;;;;;;;;;;;;;;-140.72;100.00;52683.06;5075044;28;19923;-69
2023/08/05 01:37:48;;;;;;;;;;;;;;;-140.72;100.00;52683.06;5091265;28;20019;-69
2023/08/05 01:40:13;;;;;;;;;;;;;;;-140.72;100.00;52683.06;5096694;28;20431;-69
2023/08/05 01:42:38;;;;;;;;;;;;;;;-140.72;100.00;52711.47;5096633;28;19916;-69
2023/08/05 01:45:04;;;;;;;;;;;;;;;-140.72;100.00;52672.91;5096555;28;20072;-69
2023/08/05 01:47:29;;;;;;;;;;;;;;;-140.72;100.00;52707.41;5088224;28;20374;-69
2023/08/05 01:49:54;;;;;;;;;;;;;;;-140.72;100.00;52676.97;5062805;28;20358;-69
2023/08/05 01:52:20;;;;;;;;;;;;;;;-140.72;100.00;52685.09;5076879;28;19994;-69
2023/08/05 01:54:45;;;;;;;;;;;;;;;-140.72;100.00;52662.78;5091946;28;19916;-69
2023/08/05 01:57:10;;;;;;;;;;;;;;;-140.72;100.00;52707.41;5069817;28;20347;-68
2023/08/05 01:59:35;;;;;;;;;;;;;;;-140.72;100.00;52687.13;5102598;28;20270;-69
2023/08/05 02:02:00;;;;;;;;;;;;;;;-140.72;100.00;52679.00;5095679;28;20328;-69
2023/08/05 02:04:26;;;;;;;;;;;;;;;-140.72;100.00;52646.53;5096503;28;20013;-69
2023/08/05 02:06:51;;;;;;;;;;;;;;;-140.72;100.00;52687.13;5095891;28;19956;-69
2023/08/05 02:09:16;;;;;;;;;;;;;;;-140.72;100.00;52715.53;5088316;28;19916;-69
2023/08/05 02:11:42;;;;;;;;;;;;;;;-140.72;100.00;52695.25;5076320;28;19924;-69
2023/08/05 02:14:07;;;;;;;;;;;;;;;-140.72;100.00;52681.03;5076327;28;19920;-69
2023/08/05 02:16:33;;;;;;;;;;;;;;;-140.72;100.00;52721.63;5077477;28;19924;-69
2023/08/05 02:18:58;;;;;;;;;;;;;;;-140.72;100.00;52733.78;5096370;28;20290;-69
2023/08/05 02:21:24;;;;;;;;;;;;;;;-140.72;100.00;52711.47;5095400;28;19916;-69
2023/08/05 02:23:50;;;;;;;;;;;;;;;-140.72;100.00;52723.66;5096174;28;19916;-69
2023/08/05 02:26:15;;;;;;;;;;;;;;;-140.72;100.00;52739.88;5122267;27;19916;-69
2023/08/05 02:28:40;;;;;;;;;;;;;;;-140.72;100.00;52715.53;5096080;28;19951;-69
2023/08/05 02:31:05;;;;;;;;;;;;;;;-140.72;100.00;52668.84;5095571;28;19920;-69
2023/08/05 02:33:31;;;;;;;;;;;;;;;-140.72;100.00;52735.81;5094277;28;19916;-69
2023/08/05 02:35:59;;;;;;;;;;;;;;;-140.72;100.00;52727.72;5088107;28;19969;-69
2023/08/05 02:38:26;;;;;;;;;;;;;;;-140.72;100.00;52705.38;5082463;28;19916;-68
2023/08/05 02:40:52;;;;;;;;;;;;;;;-140.72;100.00;52733.78;5087743;28;19926;-69
2023/08/05 02:43:17;;;;;;;;;;;;;;;-140.72;100.00;52674.94;5095296;28;19917;-69
2023/08/05 02:45:43;;;;;;;;;;;;;;;-140.72;100.00;52717.56;5096845;28;19966;-69
2023/08/05 02:48:08;;;;;;;;;;;;;;;-140.72;100.00;52685.09;5091670;28;20380;-69
2023/08/05 02:50:33;;;;;;;;;;;;;;;-140.72;100.00;52703.34;5090297;28;19946;-69
2023/08/05 02:52:58;;;;;;;;;;;;;;;-140.72;100.00;52707.41;5099229;28;20365;-69
2023/08/05 02:55:23;;;;;;;;;;;;;;;-140.72;100.00;52727.72;5097117;28;20385;-69
2023/08/05 02:57:49;;;;;;;;;;;;;;;-140.72;100.00;52748.00;5078505;28;20385;-69
2023/08/05 03:00:16;;;;;;;;;;;;;;;-140.72;100.00;52739.88;5087884;28;19961;-69
2023/08/05 03:02:41;;;;;;;;;;;;;;;-140.72;100.00;52691.19;5085082;28;19916;-69
2023/08/05 03:05:08;;;;;;;;;;;;;;;-140.72;100.00;52721.63;5081604;28;20011;-69
2023/08/05 03:07:34;;;;;;;;;;;;;;;-140.72;100.00;52727.72;5081636;28;19916;-69
2023/08/05 03:09:59;;;;;;;;;;;;;;;-140.72;100.00;52719.59;5088405;28;20324;-68
2023/08/05 03:12:24;;;;;;;;;;;;;;;-140.72;100.00;52693.22;5077142;28;20015;-69
2023/08/05 03:14:51;;;;;;;;;;;;;;;-140.72;100.00;52727.72;5087581;28;19931;-68
2023/08/05 03:17:16;;;;;;;;;;;;;;;-140.72;100.00;52719.59;5077579;28;19917;-69
2023/08/05 03:19:41;;;;;;;;;;;;;;;-140.72;100.00;52741.91;5059623;28;19922;-69
2023/08/05 03:22:07;;;;;;;;;;;;;;;-140.72;100.00;52723.66;5077660;28;20010;-69
2023/08/05 03:24:32;;;;;;;;;;;;;;;-140.72;100.00;52721.63;5077118;28;20007;-69
2023/08/05 03:26:57;;;;;;;;;;;;;;;-140.72;100.00;52717.56;5076298;28;19955;-69
2023/08/05 03:29:22;;;;;;;;;;;;;;;-140.72;100.00;52721.63;5089022;28;20405;-69
2023/08/05 03:31:47;;;;;;;;;;;;;;;-140.72;100.00;52713.50;5075913;28;19921;-69
2023/08/05 03:34:13;;;;;;;;;;;;;;;-140.72;100.00;52723.66;5083186;28;19916;-69
2023/08/05 03:36:38;;;;;;;;;;;;;;;-140.72;100.00;52737.84;5089021;28;20008;-69
2023/08/05 03:39:03;;;;;;;;;;;;;;;-140.72;100.00;52766.25;5086021;28;19916;-69
2023/08/05 03:41:29;;;;;;;;;;;;;;;-140.72;100.00;52743.94;5080145;28;20285;-68
2023/08/05 03:43:54;;;;;;;;;;;;;;;-140.72;100.00;52719.59;5075821;28;19921;-69
2023/08/05 03:46:19;;;;;;;;;;;;;;;-140.72;100.00;52709.44;5075243;28;19920;-69
2023/08/05 03:48:45;;;;;;;;;;;;;;;-140.72;100.00;52731.75;5084210;28;19959;-69
2023/08/05 03:51:10;;;;;;;;;;;;;;;-140.72;100.00;52739.88;5093491;28;20439;-69
2023/08/05 03:53:35;;;;;;;;;;;;;;;-140.72;100.00;52743.94;5085451;28;19948;-70
2023/08/05 03:56:01;;;;;;;;;;;;;;;-140.72;100.00;52703.34;5076910;28;20295;-70
2023/08/05 03:58:26;;;;;;;;;;;;;;;-140.72;100.00;52754.09;5095021;28;20057;-69
2023/08/05 04:00:51;;;;;;;;;;;;;;;-140.72;100.00;52754.09;5089751;28;19916;-70
2023/08/05 04:03:17;;;;;;;;;;;;;;;-140.72;100.00;52731.75;5091881;28;20400;-70
2023/08/05 04:05:42;;;;;;;;;;;;;;;-140.72;100.00;52683.06;5088601;28;20358;-70
2023/08/05 04:08:08;;;;;;;;;;;;;;;-140.72;100.00;52733.78;5075240;28;19916;-69
2023/08/05 04:10:35;;;;;;;;;;;;;;;-140.72;100.00;52711.47;5088255;28;19953;-70
2023/08/05 04:13:03;;;;;;;;;;;;;;;-140.72;100.00;52725.69;5075546;28;19920;-69
2023/08/05 04:15:30;;;;;;;;;;;;;;;-140.72;100.00;52695.25;5075479;28;19916;-70
2023/08/05 04:17:59;;;;;;;;;;;;;;;-140.72;100.00;52719.59;5075073;28;19916;-69
2023/08/05 04:20:25;;;;;;;;;;;;;;;-140.72;100.00;52715.53;5076084;28;19920;-69
2023/08/05 04:22:50;;;;;;;;;;;;;;;-140.72;100.00;52729.75;5085016;28;19931;-70
2023/08/05 04:25:15;;;;;;;;;;;;;;;-140.72;100.00;52721.63;5089073;28;20263;-69
2023/08/05 04:27:41;;;;;;;;;;;;;;;-140.72;100.00;52748.00;5094361;28;19926;-69
2023/08/05 04:30:07;;;;;;;;;;;;;;;-140.72;100.00;52719.59;5093303;28;20035;-69
2023/08/05 04:32:33;;;;;;;;;;;;;;;-140.72;100.00;52760.19;5093957;28;19920;-69
2023/08/05 04:34:58;;;;;;;;;;;;;;;-140.72;100.00;52717.56;5093220;28;20378;-69
2023/08/05 04:37:23;;;;;;;;;;;;;;;-140.72;100.00;52758.16;5086164;28;19916;-69
2023/08/05 04:39:49;;;;;;;;;;;;;;;-140.72;100.00;52705.38;5089362;28;20316;-69
2023/08/05 04:42:15;;;;;;;;;;;;;;;-140.72;100.00;52743.94;5080542;28;20060;-69
2023/08/05 04:44:40;;;;;;;;;;;;;;;-140.72;100.00;52760.19;5088658;28;19923;-69
2023/08/05 04:47:12;;;;;;;;;;;;;;;-140.72;100.00;52735.81;5091040;28;19916;-69
2023/08/05 04:49:40;;;;;;;;;;;;;;;-140.72;100.00;52748.00;5090581;28;19923;-69
2023/08/05 04:52:06;;;;;;;;;;;;;;;-140.72;100.00;52745.97;5093199;28;20279;-70
2023/08/05 04:54:35;;;;;;;;;;;;;;;-140.72;100.00;52737.84;5086089;28;20026;-70
2023/08/05 04:57:00;;;;;;;;;;;;;;;-140.72;100.00;52719.59;5089160;28;19923;-69
2023/08/05 04:59:25;;;;;;;;;;;;;;;-140.72;100.00;52719.59;5087611;28;20023;-69
2023/08/05 05:01:50;;;;;;;;;;;;;;;-140.72;100.00;52752.06;5092565;28;20358;-69
2023/08/05 05:04:15;;;;;;;;;;;;;;;-140.72;100.00;52721.63;5093220;28;20271;-69
2023/08/05 05:06:41;;;;;;;;;;;;;;;-140.72;100.00;52750.03;5091656;28;20010;-69
2023/08/05 05:09:06;;;;;;;;;;;;;;;-140.72;100.00;52725.69;5086301;28;19997;-69
2023/08/05 05:11:31;;;;;;;;;;;;;;;-140.72;100.00;52752.06;5073782;28;19920;-69
2023/08/05 05:13:57;;;;;;;;;;;;;;;-140.72;100.00;52760.19;5074189;28;20382;-69
2023/08/05 05:16:23;;;;;;;;;;;;;;;-140.72;100.00;52733.78;5082141;28;20377;-69
2023/08/05 05:18:48;;;;;;;;;;;;;;;-140.72;100.00;52729.75;5092702;28;20003;-69
2023/08/05 05:21:13;;;;;;;;;;;;;;;-140.72;100.00;52693.22;5084940;28;20411;-69
2023/08/05 05:23:39;;;;;;;;;;;;;;;-140.72;100.00;52687.13;5088717;28;20392;-69
2023/08/05 05:26:04;;;;;;;;;;;;;;;-140.72;100.00;52760.19;5092903;28;19916;-69
2023/08/05 05:28:30;;;;;;;;;;;;;;;-140.72;100.00;52723.66;5090963;28;20022;-69
2023/08/05 05:30:55;;;;;;;;;;;;;;;-140.72;100.00;52737.84;5081460;28;19916;-69
2023/08/05 05:33:20;;;;;;;;;;;;;;;-140.72;100.00;52711.47;5092545;28;20343;-69
2023/08/05 05:35:48;;;;;;;;;;;;;;;-140.72;100.00;52758.16;5092984;28;20292;-69
2023/08/05 05:38:13;;;;;;;;;;;;;;;-140.72;100.00;52731.75;5077096;28;20281;-69
2023/08/05 05:40:41;;;;;;;;;;;;;;;-140.72;100.00;52735.81;5082237;28;19917;-69
2023/08/05 05:43:07;;;;;;;;;;;;;;;-140.72;100.00;52743.94;5079737;28;20377;-69
2023/08/05 05:45:34;;;;;;;;;;;;;;;-140.72;100.00;52717.56;5083931;28;19923;-69
2023/08/05 05:47:59;;;;;;;;;;;;;;;-140.72;100.00;52715.53;5077097;28;19974;-69
2023/08/05 05:50:24;;;;;;;;;;;;;;;-140.72;100.00;52723.66;5092459;28;19943;-69
2023/08/05 05:52:51;;;;;;;;;;;;;;;-140.72;100.00;52733.78;5091716;28;20320;-69
2023/08/05 05:55:16;;;;;;;;;;;;;;;-140.72;100.00;52715.53;5080583;28;19923;-70
2023/08/05 05:57:41;;;;;;;;;;;;;;;-140.72;100.00;52699.31;5091723;28;19920;-70
2023/08/05 06:00:08;;;;;;;;;;;;;;;-140.72;100.00;52721.63;5092835;28;19920;-69
2023/08/05 06:02:34;;;;;;;;;;;;;;;-140.72;100.00;52699.31;5092243;28;19962;-69
2023/08/05 06:04:59;;;;;;;;;;;;;;;-140.72;100.00;52735.81;5087959;28;19917;-69
2023/08/05 06:07:25;;;;;;;;;;;;;;;-140.72;100.00;52687.13;5085582;28;20294;-69
2023/08/05 06:09:50;;;;;;;;;;;;;;;-140.72;100.00;52756.13;5081070;28;20007;-69
2023/08/05 06:12:18;;;;;;;;;;;;;;;-140.72;100.00;52719.59;5092156;28;19970;-69
2023/08/05 06:14:43;;;;;;;;;;;;;;;-140.72;100.00;52697.28;5084786;28;20274;-69
2023/08/05 06:17:08;;;;;;;;;;;;;;;-140.72;100.00;52660.75;5087569;28;19916;-69
2023/08/05 06:19:33;;;;;;;;;;;;;;;-140.72;100.00;52703.34;5089656;28;19916;-69
2023/08/05 06:21:59;;;;;;;;;;;;;;;-140.72;100.00;52735.81;5095595;28;20004;-69
2023/08/05 06:24:24;;;;;;;;;;;;;;;-140.72;100.00;52695.25;5095143;28;19916;-69
2023/08/05 06:26:49;;;;;;;;;;;;;;;-140.72;100.00;52703.34;5082461;28;19977;-69
2023/08/05 06:29:14;;;;;;;;;;;;;;;-140.72;100.00;52689.16;5096084;28;19916;-69
2023/08/05 06:31:39;;;;;;;;;;;;;;;-140.72;100.00;52709.44;5097144;28;19931;-70
2023/08/05 06:34:05;;;;;;;;;;;;;;;-140.72;100.00;52703.34;5096046;28;19920;-69
2023/08/05 06:36:30;;;;;;;;;;;;;;;-140.72;100.00;52695.25;5095147;28;19920;-69
2023/08/05 06:38:55;;;;;;;;;;;;;;;-140.72;100.00;52739.88;5094164;28;20342;-69
2023/08/05 06:41:20;;;;;;;;;;;;;;;-140.72;100.00;52656.69;5083882;28;20323;-69
2023/08/05 06:43:46;;;;;;;;;;;;;;;-140.72;100.00;52668.84;5092894;28;19916;-69
2023/08/05 06:46:11;;;;;;;;;;;;;;;-140.72;100.00;52691.19;5092411;28;20406;-69
2023/08/05 06:48:36;;;;;;;;;;;;;;;-140.72;100.00;52670.88;5092392;28;20059;-69
2023/08/05 06:51:01;;;;;;;;;;;;;;;-140.72;100.00;52709.44;5077848;28;20310;-69
2023/08/05 06:53:27;;;;;;;;;;;;;;;-140.72;100.00;52666.84;5091147;28;19977;-69
2023/08/05 06:56:01;;;;;;;;;;;;;;;-140.72;100.00;52656.69;5095229;28;19962;-69
2023/08/05 06:58:27;;;;;;;;;;;;;;;-140.72;100.00;52654.66;5087743;28;19917;-69
2023/08/05 07:00:52;;;;;;;;;;;;;;;-140.72;100.00;52666.84;5081500;28;20026;-69
2023/08/05 07:03:18;;;;;;;;;;;;;;;-140.72;100.00;52676.97;5094791;28;19920;-69
2023/08/05 07:05:43;;;;;;;;;;;;;;;-140.72;100.00;52634.38;5089957;28;19962;-69
2023/08/05 07:08:08;;;;;;;;;;;;;;;-140.72;100.00;52634.38;5092978;28;19923;-69
2023/08/05 07:10:33;;;;;;;;;;;;;;;-140.72;100.00;52650.59;5094183;28;20385;-69
2023/08/05 07:13:01;;;;;;;;;;;;;;;-140.72;100.00;52593.78;5083301;28;19955;-69
2023/08/05 07:15:27;;;;;;;;;;;;;;;-140.72;100.00;52654.66;5081887;28;19962;-69
2023/08/05 07:17:52;;;;;;;;;;;;;;;-140.72;100.00;52699.31;5087045;28;19924;-70
2023/08/05 07:20:17;;;;;;;;;;;;;;;-140.72;100.00;52674.94;5088816;28;19916;-70
2023/08/05 07:22:42;;;;;;;;;;;;;;;-140.72;100.00;52654.66;5087770;28;19920;-70
2023/08/05 07:25:08;;;;;;;;;;;;;;;-140.72;100.00;52626.25;5076428;28;19923;-69
2023/08/05 07:27:33;;;;;;;;;;;;;;;-140.72;100.00;52618.13;5094521;28;19916;-69
2023/08/05 07:29:58;;;;;;;;;;;;;;;-140.72;100.00;52612.03;5092545;28;20377;-69
2023/08/05 07:32:23;;;;;;;;;;;;;;;-140.72;100.00;52668.84;5093524;28;20297;-69
2023/08/05 07:34:52;;;;;;;;;;;;;;;-140.72;100.00;52656.69;5093556;28;19972;-70
2023/08/05 07:37:18;;;;;;;;;;;;;;;-140.72;100.00;52640.44;5093839;28;19941;-69
2023/08/05 07:39:47;;;;;;;;;;;;;;;-140.72;100.00;52624.22;5092046;28;19916;-70
2023/08/05 07:42:14;;;;;;;;;;;;;;;-140.72;100.00;52652.63;5095935;28;19923;-71
2023/08/05 07:44:40;;;;;;;;;;;;;;;-140.72;100.00;52662.78;5094260;28;19920;-70
2023/08/05 07:47:05;;;;;;;;;;;;;;;-140.72;100.00;52628.28;5094779;28;20015;-70
2023/08/05 07:49:31;;;;;;;;;;;;;;;-140.72;100.00;52587.69;5093494;28;19952;-70
2023/08/05 07:51:56;;;;;;;;;;;;;;;-140.72;100.00;52610.00;5094045;28;19941;-70
2023/08/05 07:54:23;;;;;;;;;;;;;;;-140.72;100.00;52595.81;5092863;28;19983;-70
2023/08/05 07:56:48;;;;;;;;;;;;;;;-140.72;100.00;52585.66;5093947;28;19916;-70
2023/08/05 07:59:15;;;;;;;;;;;;;;;-140.72;100.00;52577.53;5085349;28;20286;-70
2023/08/05 08:01:42;;;;;;;;;;;;;;;-140.72;100.00;52593.78;5090219;28;19923;-70
2023/08/05 08:04:09;;;;;;;;;;;;;;;-140.72;100.00;52571.47;5093917;28;19951;-70
2023/08/05 08:06:34;;;;;;;;;;;;;;;-140.72;100.00;52589.72;5090404;28;19917;-70
2023/08/05 08:09:00;;;;;;;;;;;;;;;-140.72;100.00;52595.81;5077208;28;19990;-70
2023/08/05 08:11:25;;;;;;;;;;;;;;;-140.72;100.00;52603.94;5086476;28;19962;-70
2023/08/05 08:13:50;;;;;;;;;;;;;;;-140.72;100.00;52581.59;5075928;28;19959;-70
2023/08/05 08:16:16;;;;;;;;;;;;;;;-140.72;100.00;52620.16;5094701;28;19916;-70
2023/08/05 08:18:41;;;;;;;;;;;;;;;-140.72;100.00;52559.28;5081047;28;19920;-70
2023/08/05 08:21:07;;;;;;;;;;;;;;;-140.72;100.00;52545.06;5076496;28;20002;-70
2023/08/05 08:23:32;;;;;;;;;;;;;;;-140.72;100.00;52591.75;5080539;28;19916;-70
2023/08/05 08:25:58;;;;;;;;;;;;;;;-140.72;100.00;52605.94;5093864;28;20342;-70
2023/08/05 08:28:24;;;;;;;;;;;;;;;-140.72;100.00;52589.72;5077877;28;20285;-70
2023/08/05 08:30:56;;;;;;;;;;;;;;;-140.72;100.00;52589.72;5095451;28;20052;-70
2023/08/05 08:33:21;;;;;;;;;;;;;;;-140.72;100.00;52575.50;5095198;28;19924;-70
2023/08/05 08:35:47;;;;;;;;;;;;;;;-140.72;100.00;52573.50;5084463;28;19926;-70
2023/08/05 08:38:13;;;;;;;;;;;;;;;-140.72;100.00;52589.72;5087590;28;19923;-69
2023/08/05 08:40:44;;;;;;;;;;;;;;;-140.72;100.00;52581.59;5093522;28;20289;-70
2023/08/05 08:43:10;;;;;;;;;;;;;;;-140.72;100.00;52549.13;5078573;28;20406;-70
2023/08/05 08:45:35;;;;;;;;;;;;;;;-140.72;88.32;52557.25;5093385;28;19944;-70
2023/08/05 08:48:00;;;;;;;;;;;;;;;-140.72;100.00;52581.59;5090995;28;19920;-70
2023/08/05 08:50:26;;;;;;;;;;;;;;;-140.72;100.00;52539.00;5091211;28;19923;-70
2023/08/05 08:52:53;;;;;;;;;;;;;;;-140.72;100.00;52601.91;5092787;28;19916;-70
2023/08/05 08:55:18;;;;;;;;;;;;;;;-140.72;100.00;52565.38;5093359;28;19972;-70
2023/08/05 08:57:44;;;;;;;;;;;;;;;-140.72;98.74;52557.25;5074679;28;20337;-70
2023/08/05 09:00:09;;;;;;;;;;;;;;;-140.72;94.45;52589.72;5093094;28;19917;-70
2023/08/05 09:02:35;;;;;;;;;;;;;;;-140.72;97.85;52573.50;5088560;28;19916;-70
2023/08/05 09:05:00;;;;;;;;;;;;;;;-140.72;92.94;52595.81;5088263;28;19924;-70
2023/08/05 09:07:26;;;;;;;;;;;;;;;-140.72;100.00;52622.19;5090665;28;19923;-70
2023/08/05 09:09:52;;;;;;;;;;;;;;;-140.72;88.46;52593.78;5082153;28;19916;-70
2023/08/05 09:12:17;;;;;;;;;;;;;;;-140.72;94.81;52559.28;5092659;28;19916;-70
2023/08/05 09:14:42;;;;;;;;;;;;;;;-140.72;77.20;52569.44;5084673;28;20427;-70
2023/08/05 09:17:08;;;;;;;;;;;;;;;-140.72;76.34;52575.50;5088365;28;19916;-70
2023/08/05 09:19:33;;;;;;;;;;;;;;;-140.72;78.72;52573.50;5084490;28;19916;-70
2023/08/05 09:22:05;;;;;;;;;;;;;;;-140.72;74.76;52569.44;5087907;28;19970;-70
2023/08/05 09:24:30;;;;;;;;;;;;;;;-140.72;71.48;52569.44;5093155;28;19920;-70
2023/08/05 09:26:56;;;;;;;;;;;;;;;-140.72;54.29;52585.66;5089564;28;20019;-70
2023/08/05 09:29:22;;;;;;;;;;;;;;;-140.72;52.94;52577.53;5073198;28;20358;-70
2023/08/05 09:31:57;;;;;;;;;;;;;;;-140.72;60.52;52543.03;5075864;28;20010;-70
2023/08/05 09:34:30;;;;;;;;;;;;;;;-140.72;49.39;52581.59;5064375;28;20363;-69
2023/08/05 09:36:56;;;;;;;;;;;;;;;-140.72;44.52;52605.94;5091181;28;19923;-69
2023/08/05 09:39:22;;;;;;;;;;;;;;;-140.72;53.35;52541.03;5093258;28;20015;-69
2023/08/05 09:41:51;;;;;;;;;;;;;;;-140.72;44.16;52595.81;5089933;28;19927;-69
2023/08/05 09:44:16;;;;;;;;;;;;;;;-140.72;51.45;52589.72;5074962;28;19923;-69
2023/08/05 09:46:42;;;;;;;;;;;;;;;-140.72;39.80;52577.53;5087557;28;19916;-69
2023/08/05 09:49:09;;;;;;;;;;;;;;;-140.72;20.75;52522.75;5092449;28;19923;-69
2023/08/05 09:51:35;;;;;;;;;;;;;;;-140.72;15.70;52577.53;5094401;28;19923;-69
2023/08/05 09:54:02;;;;;;;;;;;;;;;-140.72;22.49;52530.88;5096260;28;19921;-69
2023/08/05 09:56:28;;;;;;;;;;;;;;;-140.72;13.65;52539.00;5096402;28;20021;-69
2023/08/05 09:58:53;;;;;;;;;;;;;;;-140.72;5.29;52612.03;5093062;28;19999;-70
2023/08/05 10:01:19;;;;;;;;;;;;;;;-140.72;11.22;52547.09;5096252;28;20061;-70
2023/08/05 10:03:45;;;;;;;;;;;;;;;-140.72;0.00;52563.34;5089042;28;19916;-70
2023/08/05 10:06:11;;;;;;;;;;;;;;;-140.72;0.00;52559.28;5096027;28;20357;-70
2023/08/05 10:08:40;;;;;;;;;;;;;;;-140.72;0.00;52571.47;5091750;28;19966;-69
2023/08/05 10:11:06;;;;;;;;;;;;;;;-140.72;0.00;52541.03;5096416;28;20356;-69
2023/08/05 10:13:35;;;;;;;;;;;;;;;-140.72;0.00;52561.31;5096238;28;19959;-69
2023/08/05 10:16:01;;;;;;;;;;;;;;;-140.72;0.00;52573.50;5095359;28;19926;-69
2023/08/05 10:18:26;;;;;;;;;;;;;;;-140.72;0.00;52559.28;5096054;28;20007;-69
2023/08/05 10:20:52;;;;;;;;;;;;;;;-140.72;0.00;52569.44;5090308;28;19916;-69
2023/08/05 10:23:17;;;;;;;;;;;;;;;-140.72;0.00;52569.44;5089140;28;19920;-70
2023/08/05 10:25:44;;;;;;;;;;;;;;;-140.72;0.00;52561.31;5096154;28;20015;-69
2023/08/05 10:28:25;;;;;;;;;;;;;;;-140.72;0.00;52567.41;5097716;28;19916;-69
2023/08/05 10:30:51;;;;;;;;;;;;;;;-140.72;0.00;52581.59;5095577;28;19920;-70
2023/08/05 10:33:16;;;;;;;;;;;;;;;-140.72;0.00;52571.47;5092816;28;20380;-69
2023/08/05 10:35:45;;;;;;;;;;;;;;;-140.72;0.00;52524.78;5095002;28;19923;-69
2023/08/05 10:38:18;;;;;;;;;;;;;;;-140.72;0.00;52526.81;5074714;28;19916;-69
2023/08/05 10:40:46;;;;;;;;;;;;;;;-140.72;0.00;52557.25;5095449;28;20022;-69
2023/08/05 10:43:24;;;;;;;;;;;;;;;-140.72;0.00;52528.84;5095985;28;19927;-69
2023/08/05 10:45:49;;;;;;;;;;;;;;;-140.72;0.00;52555.22;5089333;28;19948;-69
2023/08/05 10:48:15;;;;;;;;;;;;;;;-140.72;0.00;52587.69;5087934;28;19967;-69
2023/08/05 10:50:41;;;;;;;;;;;;;;;-140.72;0.00;52628.28;5095558;28;19916;-69
2023/08/05 10:53:08;;;;;;;;;;;;;;;-140.72;0.00;52618.13;5090710;28;19965;-70
2023/08/05 10:55:56;;;;;;;;;;;;;;;-140.72;0.00;52585.66;5091957;28;19931;-70
2023/08/05 10:58:23;;;;;;;;;;;;;;;-140.72;0.00;52581.59;5081975;28;19916;-70
2023/08/05 11:00:55;;;;;;;;;;;;;;;-140.72;0.00;52545.06;5089318;28;19920;-70
2023/08/05 11:03:21;;;;;;;;;;;;;;;-140.72;0.00;52583.63;5084790;28;19920;-70
2023/08/05 11:05:47;;;;;;;;;;;;;;;-140.72;0.00;52618.13;5079791;28;19921;-70
2023/08/05 11:08:15;;;;;;;;;;;;;;;-140.72;0.00;52597.84;5084580;28;20340;-70
2023/08/05 11:10:43;;;;;;;;;;;;;;;-140.72;0.00;52644.50;5091079;28;19920;-70
2023/08/05 11:13:08;;;;;;;;;;;;;;;-140.72;0.00;52610.00;5098142;28;19923;-70
2023/08/05 11:15:39;;;;;;;;;;;;;;;-140.72;0.00;52646.53;5095591;28;19916;-70
2023/08/05 11:18:04;;;;;;;;;;;;;;;-140.72;0.00;52662.78;5085877;28;19948;-70
2023/08/05 11:20:30;;;;;;;;;;;;;;;-140.72;0.00;52642.47;5088588;28;19962;-70
2023/08/05 11:22:55;;;;;;;;;;;;;;;-140.72;4.28;52650.59;5075639;28;19916;-70
2023/08/05 11:25:21;;;;;;;;;;;;;;;-140.72;2.48;52666.84;5076166;28;20464;-69
2023/08/05 11:27:52;;;;;;;;;;;;;;;-140.72;19.77;52666.84;5083892;28;19924;-69
2023/08/05 11:30:18;;;;;;;;;;;;;;;-140.72;46.70;52666.84;5093653;28;20296;-69
2023/08/05 11:32:50;;;;;;;;;;;;;;;-140.72;70.81;52717.56;5094359;28;19966;-69
2023/08/05 11:35:16;;;;;;;;;;;;;;;-140.72;100.00;52650.59;5092554;28;19916;-69
2023/08/05 11:37:41;;;;;;;;;;;;;;;-140.72;100.00;52666.84;5093732;28;19920;-69
2023/08/05 11:40:06;;;;;;;;;;;;;;;-140.72;100.00;52674.94;5090346;28;19967;-69
2023/08/05 11:42:32;;;;;;;;;;;;;;;-140.72;100.00;52674.94;5094815;28;19986;-69
2023/08/05 11:44:58;;;;;;;;;;;;;;;-140.72;100.00;52707.41;5093745;28;20385;-69
2023/08/05 11:47:23;;;;;;;;;;;;;;;-140.72;100.00;52672.91;5094231;28;19960;-69
2023/08/05 11:49:52;;;;;;;;;;;;;;;-140.72;100.00;52683.06;5093397;28;19916;-69
2023/08/05 11:52:17;;;;;;;;;;;;;;;-140.72;100.00;52709.44;5092495;28;19916;-69
2023/08/05 11:54:44;;;;;;;;;;;;;;;-140.72;100.00;52756.13;5089125;28;19917;-69
2023/08/05 11:57:18;;;;;;;;;;;;;;;-140.72;100.00;52697.28;5091859;28;19966;-69
2023/08/05 11:59:47;;;;;;;;;;;;;;;-140.72;100.00;52719.59;5088157;28;19916;-69
2023/08/05 12:02:13;;;;;;;;;;;;;;;-140.72;100.00;52689.16;5085590;28;19924;-70
2023/08/05 12:04:42;;;;;;;;;;;;;;;-140.72;100.00;52670.88;5086126;28;19916;-69
2023/08/05 12:07:10;;;;;;;;;;;;;;;-140.72;100.00;52707.41;5090969;28;19916;-70
2023/08/05 12:09:35;;;;;;;;;;;;;;;-140.72;100.00;52697.28;5074550;28;19916;-70
2023/08/05 12:12:00;;;;;;;;;;;;;;;-140.72;100.00;52672.91;5087554;28;20457;-70
2023/08/05 12:14:25;;;;;;;;;;;;;;;-140.72;100.00;52674.94;5093511;28;20321;-69